sensor_id;sensor_type;location;lat;lon;timestamp;temperature;humidity
47626;DHT22;33342;45.574;9.252;2023-04-08T00:01:06;12.50;99.90
47626;DHT22;33342;45.574;9.252;2023-04-08T00:03:33;12.50;99.90
47626;DHT22;33342;45.574;9.252;2023-04-08T00:06:00;12.40;99.90
47626;DHT22;33342;45.574;9.252;2023-04-08T00:08:28;12.40;99.90
47626;DHT22;33342;45.574;9.252;2023-04-08T00:10:56;12.40;99.90
47626;DHT22;33342;45.574;9.252;2023-04-08T00:13:23;12.40;99.90
47626;DHT22;33342;45.574;9.252;2023-04-08T00:15:50;12.40;99.90
47626;DHT22;33342;45.574;9.252;2023-04-08T00:18:17;12.30;99.90
47626;DHT22;33342;45.574;9.252;2023-04-08T00:20:44;12.40;99.90
47626;DHT22;33342;45.574;9.252;2023-04-08T00:23:11;12.30;99.90
47626;DHT22;33342;45.574;9.252;2023-04-08T00:25:38;12.30;99.90
47626;DHT22;33342;45.574;9.252;2023-04-08T00:28:05;12.30;99.90
47626;DHT22;33342;45.574;9.252;2023-04-08T00:30:32;12.20;99.90
47626;DHT22;33342;45.574;9.252;2023-04-08T00:32:59;12.20;99.90
47626;DHT22;33342;45.574;9.252;2023-04-08T00:35:27;12.20;99.90
47626;DHT22;33342;45.574;9.252;2023-04-08T00:37:54;12.20;99.90
47626;DHT22;33342;45.574;9.252;2023-04-08T00:40:21;12.20;99.90
47626;DHT22;33342;45.574;9.252;2023-04-08T00:42:48;12.10;99.90
47626;DHT22;33342;45.574;9.252;2023-04-08T00:45:15;12.10;99.90
47626;DHT22;33342;45.574;9.252;2023-04-08T00:47:42;12.10;99.90
47626;DHT22;33342;45.574;9.252;2023-04-08T00:50:10;12.10;99.90
47626;DHT22;33342;45.574;9.252;2023-04-08T00:52:37;12.00;99.90
47626;DHT22;33342;45.574;9.252;2023-04-08T00:55:04;12.00;99.90
47626;DHT22;33342;45.574;9.252;2023-04-08T00:57:32;12.00;99.90
47626;DHT22;33342;45.574;9.252;2023-04-08T00:59:59;12.00;99.90
47626;DHT22;33342;45.574;9.252;2023-04-08T01:05:26;12.00;99.90
47626;DHT22;33342;45.574;9.252;2023-04-08T01:07:54;12.00;99.90
47626;DHT22;33342;45.574;9.252;2023-04-08T01:10:29;12.10;99.90
47626;DHT22;33342;45.574;9.252;2023-04-08T01:13:00;12.10;99.90
47626;DHT22;33342;45.574;9.252;2023-04-08T01:15:30;12.10;99.90
47626;DHT22;33342;45.574;9.252;2023-04-08T01:17:58;12.10;99.90
47626;DHT22;33342;45.574;9.252;2023-04-08T01:20:28;12.10;99.90
47626;DHT22;33342;45.574;9.252;2023-04-08T01:25:31;12.00;99.90
47626;DHT22;33342;45.574;9.252;2023-04-08T01:28:06;12.00;99.90
47626;DHT22;33342;45.574;9.252;2023-04-08T01:30:34;12.00;99.90
47626;DHT22;33342;45.574;9.252;2023-04-08T01:33:03;11.90;99.90
47626;DHT22;33342;45.574;9.252;2023-04-08T01:35:32;11.90;99.90
47626;DHT22;33342;45.574;9.252;2023-04-08T01:38:00;11.90;99.90
47626;DHT22;33342;45.574;9.252;2023-04-08T01:40:29;11.80;99.90
47626;DHT22;33342;45.574;9.252;2023-04-08T01:42:58;11.80;99.90
47626;DHT22;33342;45.574;9.252;2023-04-08T01:45:27;11.80;99.90
47626;DHT22;33342;45.574;9.252;2023-04-08T01:47:57;11.80;99.90
47626;DHT22;33342;45.574;9.252;2023-04-08T01:50:27;11.80;99.90
47626;DHT22;33342;45.574;9.252;2023-04-08T01:52:55;11.80;99.90
47626;DHT22;33342;45.574;9.252;2023-04-08T01:55:23;11.80;99.90
47626;DHT22;33342;45.574;9.252;2023-04-08T01:57:52;11.70;99.90
47626;DHT22;33342;45.574;9.252;2023-04-08T02:00:23;11.70;99.90
47626;DHT22;33342;45.574;9.252;2023-04-08T02:02:51;11.70;99.90
47626;DHT22;33342;45.574;9.252;2023-04-08T02:05:19;11.70;99.90
47626;DHT22;33342;45.574;9.252;2023-04-08T02:07:47;11.60;99.90
47626;DHT22;33342;45.574;9.252;2023-04-08T02:10:14;11.50;99.90
47626;DHT22;33342;45.574;9.252;2023-04-08T02:12:43;11.50;99.90
47626;DHT22;33342;45.574;9.252;2023-04-08T02:15:11;11.50;99.90
47626;DHT22;33342;45.574;9.252;2023-04-08T02:17:45;11.40;99.90
47626;DHT22;33342;45.574;9.252;2023-04-08T02:20:18;11.40;99.90
47626;DHT22;33342;45.574;9.252;2023-04-08T02:22:54;11.40;99.90
47626;DHT22;33342;45.574;9.252;2023-04-08T02:25:24;11.40;99.90
47626;DHT22;33342;45.574;9.252;2023-04-08T02:27:52;11.40;99.90
47626;DHT22;33342;45.574;9.252;2023-04-08T02:30:20;11.40;99.90
47626;DHT22;33342;45.574;9.252;2023-04-08T02:32:49;11.40;99.90
47626;DHT22;33342;45.574;9.252;2023-04-08T02:35:17;11.40;99.90
47626;DHT22;33342;45.574;9.252;2023-04-08T02:37:45;11.40;99.90
47626;DHT22;33342;45.574;9.252;2023-04-08T02:40:31;11.40;99.90
47626;DHT22;33342;45.574;9.252;2023-04-08T02:42:58;11.40;99.90
47626;DHT22;33342;45.574;9.252;2023-04-08T02:45:37;11.40;99.90
47626;DHT22;33342;45.574;9.252;2023-04-08T02:48:04;11.30;99.90
47626;DHT22;33342;45.574;9.252;2023-04-08T02:50:32;11.30;99.90
47626;DHT22;33342;45.574;9.252;2023-04-08T02:52:59;11.30;99.90
47626;DHT22;33342;45.574;9.252;2023-04-08T02:55:28;11.20;99.90
47626;DHT22;33342;45.574;9.252;2023-04-08T02:57:55;11.20;99.90
47626;DHT22;33342;45.574;9.252;2023-04-08T03:00:22;11.10;99.90
47626;DHT22;33342;45.574;9.252;2023-04-08T03:02:49;11.10;99.90
47626;DHT22;33342;45.574;9.252;2023-04-08T03:05:16;11.00;99.90
47626;DHT22;33342;45.574;9.252;2023-04-08T03:07:43;11.00;99.90
47626;DHT22;33342;45.574;9.252;2023-04-08T03:10:11;11.00;99.90
47626;DHT22;33342;45.574;9.252;2023-04-08T03:12:37;11.10;99.90
47626;DHT22;33342;45.574;9.252;2023-04-08T03:15:05;11.10;99.90
47626;DHT22;33342;45.574;9.252;2023-04-08T03:17:32;11.00;99.90
47626;DHT22;33342;45.574;9.252;2023-04-08T03:20:01;11.10;99.90
47626;DHT22;33342;45.574;9.252;2023-04-08T03:22:30;11.00;99.90
47626;DHT22;33342;45.574;9.252;2023-04-08T03:24:57;11.00;99.90
47626;DHT22;33342;45.574;9.252;2023-04-08T03:27:24;11.00;99.90
47626;DHT22;33342;45.574;9.252;2023-04-08T03:29:52;11.00;99.90
47626;DHT22;33342;45.574;9.252;2023-04-08T03:32:19;11.00;99.90
47626;DHT22;33342;45.574;9.252;2023-04-08T03:34:46;11.00;99.90
47626;DHT22;33342;45.574;9.252;2023-04-08T03:37:15;11.00;99.90
47626;DHT22;33342;45.574;9.252;2023-04-08T03:39:42;10.90;99.90
47626;DHT22;33342;45.574;9.252;2023-04-08T03:42:09;10.90;99.90
47626;DHT22;33342;45.574;9.252;2023-04-08T03:44:37;10.90;99.90
47626;DHT22;33342;45.574;9.252;2023-04-08T03:47:04;10.90;99.90
47626;DHT22;33342;45.574;9.252;2023-04-08T03:49:30;10.90;99.90
47626;DHT22;33342;45.574;9.252;2023-04-08T03:51:57;10.80;99.90
47626;DHT22;33342;45.574;9.252;2023-04-08T03:54:24;10.80;99.90
47626;DHT22;33342;45.574;9.252;2023-04-08T03:56:51;10.70;99.90
47626;DHT22;33342;45.574;9.252;2023-04-08T03:59:18;10.80;99.90
47626;DHT22;33342;45.574;9.252;2023-04-08T04:01:45;10.70;99.90
47626;DHT22;33342;45.574;9.252;2023-04-08T04:04:13;10.70;99.90
47626;DHT22;33342;45.574;9.252;2023-04-08T04:06:40;10.70;99.90
47626;DHT22;33342;45.574;9.252;2023-04-08T04:09:07;10.70;99.90
47626;DHT22;33342;45.574;9.252;2023-04-08T04:11:34;10.70;99.90
47626;DHT22;33342;45.574;9.252;2023-04-08T04:14:01;10.70;99.90
47626;DHT22;33342;45.574;9.252;2023-04-08T04:16:29;10.70;99.90
47626;DHT22;33342;45.574;9.252;2023-04-08T04:18:59;10.80;99.90
47626;DHT22;33342;45.574;9.252;2023-04-08T04:21:26;10.80;99.90
47626;DHT22;33342;45.574;9.252;2023-04-08T04:23:53;10.80;99.90
47626;DHT22;33342;45.574;9.252;2023-04-08T04:26:20;10.80;99.90
47626;DHT22;33342;45.574;9.252;2023-04-08T04:28:47;10.70;99.90
47626;DHT22;33342;45.574;9.252;2023-04-08T04:31:19;10.70;99.90
47626;DHT22;33342;45.574;9.252;2023-04-08T04:33:48;10.70;99.90
47626;DHT22;33342;45.574;9.252;2023-04-08T04:36:15;10.80;99.90
47626;DHT22;33342;45.574;9.252;2023-04-08T04:38:42;10.70;99.90
47626;DHT22;33342;45.574;9.252;2023-04-08T04:41:09;10.70;99.90
47626;DHT22;33342;45.574;9.252;2023-04-08T04:43:37;10.70;99.90
47626;DHT22;33342;45.574;9.252;2023-04-08T04:46:04;10.60;99.90
47626;DHT22;33342;45.574;9.252;2023-04-08T04:48:35;10.60;99.90
47626;DHT22;33342;45.574;9.252;2023-04-08T04:51:02;10.60;99.90
47626;DHT22;33342;45.574;9.252;2023-04-08T04:53:29;10.50;99.90
47626;DHT22;33342;45.574;9.252;2023-04-08T04:55:57;10.50;99.90
47626;DHT22;33342;45.574;9.252;2023-04-08T04:58:27;10.40;99.90
47626;DHT22;33342;45.574;9.252;2023-04-08T05:00:54;10.30;99.90
47626;DHT22;33342;45.574;9.252;2023-04-08T05:03:22;10.30;99.90
47626;DHT22;33342;45.574;9.252;2023-04-08T05:05:51;10.30;99.90
47626;DHT22;33342;45.574;9.252;2023-04-08T05:08:19;10.30;99.90
47626;DHT22;33342;45.574;9.252;2023-04-08T05:10:46;10.30;99.90
47626;DHT22;33342;45.574;9.252;2023-04-08T05:13:16;10.40;99.90
47626;DHT22;33342;45.574;9.252;2023-04-08T05:15:43;10.40;99.90
47626;DHT22;33342;45.574;9.252;2023-04-08T05:18:14;10.40;99.90
47626;DHT22;33342;45.574;9.252;2023-04-08T05:20:41;10.40;99.90
47626;DHT22;33342;45.574;9.252;2023-04-08T05:23:08;10.40;99.90
47626;DHT22;33342;45.574;9.252;2023-04-08T05:25:35;10.40;99.90
47626;DHT22;33342;45.574;9.252;2023-04-08T05:28:02;10.40;99.90
47626;DHT22;33342;45.574;9.252;2023-04-08T05:30:29;10.40;99.90
47626;DHT22;33342;45.574;9.252;2023-04-08T05:32:57;10.50;99.90
47626;DHT22;33342;45.574;9.252;2023-04-08T05:35:27;10.50;99.90
47626;DHT22;33342;45.574;9.252;2023-04-08T05:37:54;10.60;99.90
47626;DHT22;33342;45.574;9.252;2023-04-08T05:40:21;10.60;99.90
47626;DHT22;33342;45.574;9.252;2023-04-08T05:42:48;10.60;99.90
47626;DHT22;33342;45.574;9.252;2023-04-08T05:45:15;10.60;99.90
47626;DHT22;33342;45.574;9.252;2023-04-08T05:47:42;10.70;99.90
47626;DHT22;33342;45.574;9.252;2023-04-08T05:50:10;10.70;99.90
47626;DHT22;33342;45.574;9.252;2023-04-08T05:52:41;10.70;99.90
47626;DHT22;33342;45.574;9.252;2023-04-08T05:55:10;10.70;99.90
47626;DHT22;33342;45.574;9.252;2023-04-08T05:57:37;10.60;99.90
47626;DHT22;33342;45.574;9.252;2023-04-08T06:00:06;10.60;99.90
47626;DHT22;33342;45.574;9.252;2023-04-08T06:02:36;10.50;99.90
47626;DHT22;33342;45.574;9.252;2023-04-08T06:05:04;10.50;99.90
47626;DHT22;33342;45.574;9.252;2023-04-08T06:07:32;10.50;99.90
47626;DHT22;33342;45.574;9.252;2023-04-08T06:09:59;10.50;99.90
47626;DHT22;33342;45.574;9.252;2023-04-08T06:12:26;10.50;99.90
47626;DHT22;33342;45.574;9.252;2023-04-08T06:14:56;10.50;99.90
47626;DHT22;33342;45.574;9.252;2023-04-08T06:17:23;10.50;99.90
47626;DHT22;33342;45.574;9.252;2023-04-08T06:19:50;10.60;99.90
47626;DHT22;33342;45.574;9.252;2023-04-08T06:22:17;10.70;99.90
47626;DHT22;33342;45.574;9.252;2023-04-08T06:24:46;10.70;99.90
47626;DHT22;33342;45.574;9.252;2023-04-08T06:27:14;10.80;99.90
47626;DHT22;33342;45.574;9.252;2023-04-08T06:29:41;10.80;99.90
47626;DHT22;33342;45.574;9.252;2023-04-08T06:32:09;10.90;99.90
47626;DHT22;33342;45.574;9.252;2023-04-08T06:34:36;11.00;99.90
47626;DHT22;33342;45.574;9.252;2023-04-08T06:37:04;11.00;99.90
47626;DHT22;33342;45.574;9.252;2023-04-08T06:39:32;11.00;99.90
47626;DHT22;33342;45.574;9.252;2023-04-08T06:41:59;11.00;99.90
47626;DHT22;33342;45.574;9.252;2023-04-08T06:44:47;11.10;99.90
47626;DHT22;33342;45.574;9.252;2023-04-08T06:47:14;11.10;99.90
47626;DHT22;33342;45.574;9.252;2023-04-08T06:49:42;11.10;99.90
47626;DHT22;33342;45.574;9.252;2023-04-08T06:52:09;11.10;99.90
47626;DHT22;33342;45.574;9.252;2023-04-08T06:54:38;11.20;99.90
47626;DHT22;33342;45.574;9.252;2023-04-08T06:57:05;11.20;99.90
47626;DHT22;33342;45.574;9.252;2023-04-08T06:59:32;11.20;99.90
47626;DHT22;33342;45.574;9.252;2023-04-08T07:01:59;11.30;99.90
47626;DHT22;33342;45.574;9.252;2023-04-08T07:04:27;11.30;99.90
47626;DHT22;33342;45.574;9.252;2023-04-08T07:06:54;11.30;99.90
47626;DHT22;33342;45.574;9.252;2023-04-08T07:09:21;11.40;99.90
47626;DHT22;33342;45.574;9.252;2023-04-08T07:11:48;11.40;99.90
47626;DHT22;33342;45.574;9.252;2023-04-08T07:14:15;11.40;99.90
47626;DHT22;33342;45.574;9.252;2023-04-08T07:16:42;11.50;99.90
47626;DHT22;33342;45.574;9.252;2023-04-08T07:19:09;11.50;99.90
47626;DHT22;33342;45.574;9.252;2023-04-08T07:21:36;11.50;99.90
47626;DHT22;33342;45.574;9.252;2023-04-08T07:24:03;11.60;99.90
47626;DHT22;33342;45.574;9.252;2023-04-08T07:26:30;11.60;99.90
47626;DHT22;33342;45.574;9.252;2023-04-08T07:28:57;11.60;99.90
47626;DHT22;33342;45.574;9.252;2023-04-08T07:31:24;11.70;99.90
47626;DHT22;33342;45.574;9.252;2023-04-08T07:33:51;11.70;99.90
47626;DHT22;33342;45.574;9.252;2023-04-08T07:36:18;11.70;99.90
47626;DHT22;33342;45.574;9.252;2023-04-08T07:38:46;11.70;99.90
47626;DHT22;33342;45.574;9.252;2023-04-08T07:41:14;11.70;99.90
47626;DHT22;33342;45.574;9.252;2023-04-08T07:43:41;11.70;99.90
47626;DHT22;33342;45.574;9.252;2023-04-08T07:46:08;11.80;99.90
47626;DHT22;33342;45.574;9.252;2023-04-08T07:48:35;11.80;99.90
47626;DHT22;33342;45.574;9.252;2023-04-08T07:51:03;11.90;99.90
47626;DHT22;33342;45.574;9.252;2023-04-08T07:53:37;11.90;99.90
47626;DHT22;33342;45.574;9.252;2023-04-08T07:56:14;11.90;99.90
47626;DHT22;33342;45.574;9.252;2023-04-08T07:58:41;12.00;99.90
47626;DHT22;33342;45.574;9.252;2023-04-08T08:01:22;12.00;99.90
47626;DHT22;33342;45.574;9.252;2023-04-08T08:03:50;12.00;99.90
47626;DHT22;33342;45.574;9.252;2023-04-08T08:06:18;12.00;99.90
47626;DHT22;33342;45.574;9.252;2023-04-08T08:08:45;12.10;99.90
47626;DHT22;33342;45.574;9.252;2023-04-08T08:11:12;12.10;99.90
47626;DHT22;33342;45.574;9.252;2023-04-08T08:13:39;12.20;99.90
47626;DHT22;33342;45.574;9.252;2023-04-08T08:16:06;12.20;99.90
47626;DHT22;33342;45.574;9.252;2023-04-08T08:18:37;12.20;99.90
47626;DHT22;33342;45.574;9.252;2023-04-08T08:21:06;12.30;99.90
47626;DHT22;33342;45.574;9.252;2023-04-08T08:23:33;12.30;99.90
47626;DHT22;33342;45.574;9.252;2023-04-08T08:26:05;12.40;99.90
47626;DHT22;33342;45.574;9.252;2023-04-08T08:28:33;12.40;99.90
47626;DHT22;33342;45.574;9.252;2023-04-08T08:31:00;12.40;99.90
47626;DHT22;33342;45.574;9.252;2023-04-08T08:33:28;12.50;99.90
47626;DHT22;33342;45.574;9.252;2023-04-08T08:35:55;12.50;99.90
47626;DHT22;33342;45.574;9.252;2023-04-08T08:38:24;12.50;99.90
47626;DHT22;33342;45.574;9.252;2023-04-08T08:40:56;12.50;99.90
47626;DHT22;33342;45.574;9.252;2023-04-08T08:43:27;12.60;99.90
47626;DHT22;33342;45.574;9.252;2023-04-08T08:45:54;12.60;99.90
47626;DHT22;33342;45.574;9.252;2023-04-08T08:48:21;12.60;99.90
47626;DHT22;33342;45.574;9.252;2023-04-08T08:50:48;12.70;99.90
47626;DHT22;33342;45.574;9.252;2023-04-08T08:53:15;12.70;99.90
47626;DHT22;33342;45.574;9.252;2023-04-08T08:55:42;12.70;99.90
47626;DHT22;33342;45.574;9.252;2023-04-08T08:58:29;12.70;99.90
47626;DHT22;33342;45.574;9.252;2023-04-08T09:00:57;12.80;99.90
47626;DHT22;33342;45.574;9.252;2023-04-08T09:03:26;12.80;99.90
47626;DHT22;33342;45.574;9.252;2023-04-08T09:05:59;12.80;99.90
47626;DHT22;33342;45.574;9.252;2023-04-08T09:08:31;12.90;99.90
47626;DHT22;33342;45.574;9.252;2023-04-08T09:11:19;12.90;99.90
47626;DHT22;33342;45.574;9.252;2023-04-08T09:13:47;12.90;99.90
47626;DHT22;33342;45.574;9.252;2023-04-08T09:16:16;13.00;99.90
47626;DHT22;33342;45.574;9.252;2023-04-08T09:18:45;13.00;99.90
47626;DHT22;33342;45.574;9.252;2023-04-08T09:21:14;13.10;99.90
47626;DHT22;33342;45.574;9.252;2023-04-08T09:23:46;13.10;99.90
47626;DHT22;33342;45.574;9.252;2023-04-08T09:26:17;13.10;99.90
47626;DHT22;33342;45.574;9.252;2023-04-08T09:31:57;13.20;99.90
47626;DHT22;33342;45.574;9.252;2023-04-08T09:34:26;13.20;99.90
47626;DHT22;33342;45.574;9.252;2023-04-08T09:36:54;13.30;99.90
47626;DHT22;33342;45.574;9.252;2023-04-08T09:39:22;13.30;99.90
47626;DHT22;33342;45.574;9.252;2023-04-08T09:41:50;13.30;99.90
47626;DHT22;33342;45.574;9.252;2023-04-08T09:44:20;13.40;99.90
47626;DHT22;33342;45.574;9.252;2023-04-08T09:47:11;13.40;99.90
47626;DHT22;33342;45.574;9.252;2023-04-08T09:49:55;13.40;99.90
47626;DHT22;33342;45.574;9.252;2023-04-08T09:52:38;13.40;99.90
47626;DHT22;33342;45.574;9.252;2023-04-08T09:55:08;13.50;99.90
47626;DHT22;33342;45.574;9.252;2023-04-08T09:57:42;13.50;99.90
47626;DHT22;33342;45.574;9.252;2023-04-08T10:00:13;13.60;99.90
47626;DHT22;33342;45.574;9.252;2023-04-08T10:05:12;13.60;99.90
47626;DHT22;33342;45.574;9.252;2023-04-08T10:07:40;13.70;99.90
47626;DHT22;33342;45.574;9.252;2023-04-08T10:10:08;13.70;99.90
47626;DHT22;33342;45.574;9.252;2023-04-08T10:12:37;13.70;99.90
47626;DHT22;33342;45.574;9.252;2023-04-08T10:15:32;13.80;99.90
47626;DHT22;33342;45.574;9.252;2023-04-08T10:23:00;14.00;99.90
47626;DHT22;33342;45.574;9.252;2023-04-08T10:27:55;14.10;99.90
47626;DHT22;33342;45.574;9.252;2023-04-08T10:32:55;14.10;99.90
47626;DHT22;33342;45.574;9.252;2023-04-08T10:35:29;14.20;99.90
47626;DHT22;33342;45.574;9.252;2023-04-08T10:37:57;14.20;99.90
47626;DHT22;33342;45.574;9.252;2023-04-08T10:40:25;14.20;99.90
47626;DHT22;33342;45.574;9.252;2023-04-08T10:42:55;14.20;99.90
47626;DHT22;33342;45.574;9.252;2023-04-08T10:45:23;14.30;99.90
47626;DHT22;33342;45.574;9.252;2023-04-08T10:47:50;14.30;99.90
47626;DHT22;33342;45.574;9.252;2023-04-08T10:50:19;14.40;99.90
47626;DHT22;33342;45.574;9.252;2023-04-08T10:52:51;14.40;99.90
47626;DHT22;33342;45.574;9.252;2023-04-08T10:55:23;14.50;99.90
47626;DHT22;33342;45.574;9.252;2023-04-08T10:57:50;14.50;99.90
47626;DHT22;33342;45.574;9.252;2023-04-08T11:00:18;14.50;99.90
47626;DHT22;33342;45.574;9.252;2023-04-08T11:02:46;14.60;99.90
47626;DHT22;33342;45.574;9.252;2023-04-08T11:05:13;14.60;99.90
47626;DHT22;33342;45.574;9.252;2023-04-08T11:07:40;14.70;99.90
47626;DHT22;33342;45.574;9.252;2023-04-08T11:10:08;14.70;99.90
47626;DHT22;33342;45.574;9.252;2023-04-08T11:12:36;14.80;99.90
47626;DHT22;33342;45.574;9.252;2023-04-08T11:15:04;14.80;99.90
47626;DHT22;33342;45.574;9.252;2023-04-08T11:17:33;14.80;99.90
47626;DHT22;33342;45.574;9.252;2023-04-08T11:20:00;14.80;99.90
47626;DHT22;33342;45.574;9.252;2023-04-08T11:22:32;14.80;99.90
47626;DHT22;33342;45.574;9.252;2023-04-08T11:25:00;14.90;99.90
47626;DHT22;33342;45.574;9.252;2023-04-08T11:27:28;14.90;99.90
47626;DHT22;33342;45.574;9.252;2023-04-08T11:29:55;14.90;99.90
47626;DHT22;33342;45.574;9.252;2023-04-08T11:32:23;14.90;99.90
47626;DHT22;33342;45.574;9.252;2023-04-08T11:34:52;15.00;99.90
47626;DHT22;33342;45.574;9.252;2023-04-08T11:37:19;15.00;99.90
47626;DHT22;33342;45.574;9.252;2023-04-08T11:39:46;15.00;99.90
47626;DHT22;33342;45.574;9.252;2023-04-08T11:42:29;15.00;99.90
47626;DHT22;33342;45.574;9.252;2023-04-08T11:44:56;15.00;99.90
47626;DHT22;33342;45.574;9.252;2023-04-08T11:47:33;15.00;99.90
47626;DHT22;33342;45.574;9.252;2023-04-08T11:50:00;15.10;99.90
47626;DHT22;33342;45.574;9.252;2023-04-08T11:52:48;15.10;99.90
47626;DHT22;33342;45.574;9.252;2023-04-08T11:55:41;15.20;99.90
47626;DHT22;33342;45.574;9.252;2023-04-08T11:58:07;15.20;99.90
47626;DHT22;33342;45.574;9.252;2023-04-08T12:00:35;15.20;99.90
47626;DHT22;33342;45.574;9.252;2023-04-08T12:03:03;15.30;99.90
47626;DHT22;33342;45.574;9.252;2023-04-08T12:05:30;15.30;99.90
47626;DHT22;33342;45.574;9.252;2023-04-08T12:07:57;15.40;99.90
47626;DHT22;33342;45.574;9.252;2023-04-08T12:10:24;15.40;99.90
47626;DHT22;33342;45.574;9.252;2023-04-08T12:12:51;15.50;99.90
47626;DHT22;33342;45.574;9.252;2023-04-08T12:15:18;15.50;99.90
47626;DHT22;33342;45.574;9.252;2023-04-08T12:17:45;15.50;99.90
47626;DHT22;33342;45.574;9.252;2023-04-08T12:20:12;15.50;99.90
47626;DHT22;33342;45.574;9.252;2023-04-08T12:22:39;15.60;99.90
47626;DHT22;33342;45.574;9.252;2023-04-08T12:25:07;15.60;99.90
47626;DHT22;33342;45.574;9.252;2023-04-08T12:27:34;15.70;99.90
47626;DHT22;33342;45.574;9.252;2023-04-08T12:30:01;15.70;99.90
47626;DHT22;33342;45.574;9.252;2023-04-08T12:32:29;15.70;99.90
47626;DHT22;33342;45.574;9.252;2023-04-08T12:34:56;15.70;99.90
47626;DHT22;33342;45.574;9.252;2023-04-08T12:37:23;15.70;99.90
47626;DHT22;33342;45.574;9.252;2023-04-08T12:39:50;15.80;99.90
47626;DHT22;33342;45.574;9.252;2023-04-08T12:42:18;15.80;99.90
47626;DHT22;33342;45.574;9.252;2023-04-08T12:44:45;15.90;99.90
47626;DHT22;33342;45.574;9.252;2023-04-08T12:47:12;15.90;99.90
47626;DHT22;33342;45.574;9.252;2023-04-08T12:49:39;15.90;99.90
47626;DHT22;33342;45.574;9.252;2023-04-08T12:52:09;15.90;99.90
47626;DHT22;33342;45.574;9.252;2023-04-08T12:54:36;16.00;99.90
47626;DHT22;33342;45.574;9.252;2023-04-08T12:57:03;16.10;99.90
47626;DHT22;33342;45.574;9.252;2023-04-08T12:59:30;16.10;99.90
47626;DHT22;33342;45.574;9.252;2023-04-08T13:01:59;16.20;99.90
47626;DHT22;33342;45.574;9.252;2023-04-08T13:04:26;16.20;99.90
47626;DHT22;33342;45.574;9.252;2023-04-08T13:06:53;16.20;99.90
47626;DHT22;33342;45.574;9.252;2023-04-08T13:09:21;16.30;99.90
47626;DHT22;33342;45.574;9.252;2023-04-08T13:11:48;16.30;99.90
47626;DHT22;33342;45.574;9.252;2023-04-08T13:14:15;16.30;99.90
47626;DHT22;33342;45.574;9.252;2023-04-08T13:16:43;16.40;99.90
47626;DHT22;33342;45.574;9.252;2023-04-08T13:19:10;16.50;99.90
47626;DHT22;33342;45.574;9.252;2023-04-08T13:21:37;16.50;99.90
47626;DHT22;33342;45.574;9.252;2023-04-08T13:24:04;16.50;99.90
47626;DHT22;33342;45.574;9.252;2023-04-08T13:26:31;16.60;99.90
47626;DHT22;33342;45.574;9.252;2023-04-08T13:28:58;16.70;99.90
47626;DHT22;33342;45.574;9.252;2023-04-08T13:31:26;16.80;99.90
47626;DHT22;33342;45.574;9.252;2023-04-08T13:33:53;16.80;99.90
47626;DHT22;33342;45.574;9.252;2023-04-08T13:36:23;16.90;99.90
47626;DHT22;33342;45.574;9.252;2023-04-08T13:38:50;16.90;99.90
47626;DHT22;33342;45.574;9.252;2023-04-08T13:41:19;17.00;99.90
47626;DHT22;33342;45.574;9.252;2023-04-08T13:43:46;17.10;99.90
47626;DHT22;33342;45.574;9.252;2023-04-08T13:46:14;17.10;99.90
47626;DHT22;33342;45.574;9.252;2023-04-08T13:48:41;17.20;99.90
47626;DHT22;33342;45.574;9.252;2023-04-08T13:51:08;17.30;99.90
47626;DHT22;33342;45.574;9.252;2023-04-08T13:53:36;17.40;99.90
47626;DHT22;33342;45.574;9.252;2023-04-08T13:56:03;17.50;99.90
47626;DHT22;33342;45.574;9.252;2023-04-08T13:58:30;17.60;99.90
47626;DHT22;33342;45.574;9.252;2023-04-08T14:00:57;17.60;99.90
47626;DHT22;33342;45.574;9.252;2023-04-08T14:03:24;17.70;99.90
47626;DHT22;33342;45.574;9.252;2023-04-08T14:05:52;17.80;99.90
47626;DHT22;33342;45.574;9.252;2023-04-08T14:08:19;17.90;99.90
47626;DHT22;33342;45.574;9.252;2023-04-08T14:10:55;18.00;99.90
47626;DHT22;33342;45.574;9.252;2023-04-08T14:13:23;18.10;99.90
47626;DHT22;33342;45.574;9.252;2023-04-08T14:15:50;18.20;99.90
47626;DHT22;33342;45.574;9.252;2023-04-08T14:18:18;18.20;99.90
47626;DHT22;33342;45.574;9.252;2023-04-08T14:20:45;18.30;99.90
47626;DHT22;33342;45.574;9.252;2023-04-08T14:23:12;18.30;99.90
47626;DHT22;33342;45.574;9.252;2023-04-08T14:25:39;18.40;99.90
47626;DHT22;33342;45.574;9.252;2023-04-08T14:28:06;18.50;99.90
47626;DHT22;33342;45.574;9.252;2023-04-08T14:30:37;18.60;99.90
47626;DHT22;33342;45.574;9.252;2023-04-08T14:33:04;18.70;99.90
47626;DHT22;33342;45.574;9.252;2023-04-08T14:35:31;18.80;99.90
47626;DHT22;33342;45.574;9.252;2023-04-08T14:37:58;18.90;99.90
47626;DHT22;33342;45.574;9.252;2023-04-08T14:40:25;19.00;99.90
47626;DHT22;33342;45.574;9.252;2023-04-08T14:42:52;19.10;99.90
47626;DHT22;33342;45.574;9.252;2023-04-08T14:45:19;19.10;99.90
47626;DHT22;33342;45.574;9.252;2023-04-08T14:47:50;19.10;99.90
47626;DHT22;33342;45.574;9.252;2023-04-08T14:50:17;19.20;99.90
47626;DHT22;33342;45.574;9.252;2023-04-08T14:52:45;19.40;99.90
47626;DHT22;33342;45.574;9.252;2023-04-08T14:55:14;19.50;99.90
47626;DHT22;33342;45.574;9.252;2023-04-08T14:57:41;19.70;99.90
47626;DHT22;33342;45.574;9.252;2023-04-08T15:00:08;19.80;99.90
47626;DHT22;33342;45.574;9.252;2023-04-08T15:02:35;20.00;99.90
47626;DHT22;33342;45.574;9.252;2023-04-08T15:05:03;20.10;99.90
47626;DHT22;33342;45.574;9.252;2023-04-08T15:07:30;20.20;99.90
47626;DHT22;33342;45.574;9.252;2023-04-08T15:09:57;20.50;99.90
47626;DHT22;33342;45.574;9.252;2023-04-08T15:12:24;20.70;99.90
47626;DHT22;33342;45.574;9.252;2023-04-08T15:14:51;20.90;99.90
47626;DHT22;33342;45.574;9.252;2023-04-08T15:17:18;21.20;99.90
47626;DHT22;33342;45.574;9.252;2023-04-08T15:19:45;21.40;99.90
47626;DHT22;33342;45.574;9.252;2023-04-08T15:22:12;21.60;99.90
47626;DHT22;33342;45.574;9.252;2023-04-08T15:24:39;21.70;99.90
47626;DHT22;33342;45.574;9.252;2023-04-08T15:27:08;21.50;99.90
47626;DHT22;33342;45.574;9.252;2023-04-08T15:29:35;21.40;99.90
47626;DHT22;33342;45.574;9.252;2023-04-08T15:32:02;21.30;99.90
47626;DHT22;33342;45.574;9.252;2023-04-08T15:34:29;21.30;99.90
47626;DHT22;33342;45.574;9.252;2023-04-08T15:36:56;21.50;99.90
47626;DHT22;33342;45.574;9.252;2023-04-08T15:39:23;21.50;99.90
47626;DHT22;33342;45.574;9.252;2023-04-08T15:41:51;21.40;99.90
47626;DHT22;33342;45.574;9.252;2023-04-08T15:44:18;21.30;99.90
47626;DHT22;33342;45.574;9.252;2023-04-08T15:46:45;21.10;99.90
47626;DHT22;33342;45.574;9.252;2023-04-08T15:49:12;20.90;99.90
47626;DHT22;33342;45.574;9.252;2023-04-08T15:51:40;20.70;99.90
47626;DHT22;33342;45.574;9.252;2023-04-08T15:54:10;20.50;99.90
47626;DHT22;33342;45.574;9.252;2023-04-08T15:56:37;20.30;99.90
47626;DHT22;33342;45.574;9.252;2023-04-08T15:59:04;20.00;99.90